createdAt,value
2023-01-09T00:00:53.448Z,53.17
2023-01-09T00:03:26.091Z,53.37
2023-01-09T00:05:53.662Z,43.90
2023-01-09T00:08:20.651Z,49.30
2023-01-09T00:10:49.639Z,65.23
2023-01-09T00:13:18.165Z,57.60
2023-01-09T00:15:45.867Z,81.13
2023-01-09T00:18:13.003Z,46.57
2023-01-09T00:20:40.375Z,76.70
2023-01-09T00:23:07.439Z,38.40
2023-01-09T00:25:34.824Z,55.93
2023-01-09T00:28:01.727Z,52.03
2023-01-09T00:30:29.599Z,48.63
2023-01-09T00:32:56.660Z,50.47
2023-01-09T00:35:26.094Z,43.27
2023-01-09T00:37:53.166Z,81.03
2023-01-09T00:40:20.806Z,74.80
2023-01-09T00:42:53.203Z,47.20
2023-01-09T00:45:28.781Z,68.27
2023-01-09T00:48:00.973Z,53.70
2023-01-09T00:50:30.787Z,46.30
2023-01-09T00:53:00.000Z,39.20
2023-01-09T00:55:27.676Z,34.93
2023-01-09T00:57:55.761Z,49.27
2023-01-09T01:00:23.025Z,58.40
2023-01-09T01:02:50.119Z,49.60
2023-01-09T01:05:35.717Z,39.87
2023-01-09T01:08:02.628Z,39.00
2023-01-09T01:10:29.937Z,37.87
2023-01-09T01:12:56.889Z,44.03
2023-01-09T01:15:25.786Z,49.30
2023-01-09T01:17:52.671Z,119.10
2023-01-09T01:20:19.998Z,36.57
2023-01-09T01:22:47.575Z,46.43
2023-01-09T01:25:17.204Z,68.90
2023-01-09T01:27:44.789Z,56.97
2023-01-09T01:30:13.767Z,50.33
2023-01-09T01:32:41.172Z,45.47
2023-01-09T01:35:09.170Z,47.37
2023-01-09T01:37:37.382Z,39.00
2023-01-09T01:40:07.788Z,73.53
2023-01-09T01:42:34.796Z,47.43
2023-01-09T01:45:14.938Z,71.80
2023-01-09T01:47:41.908Z,82.10
2023-01-09T01:50:22.528Z,98.83
2023-01-09T01:52:56.301Z,38.37
2023-01-09T01:55:24.021Z,39.73
2023-01-09T01:57:55.720Z,42.10
2023-01-09T02:00:27.630Z,42.87
2023-01-09T02:02:54.854Z,41.03
2023-01-09T02:05:22.197Z,38.30
2023-01-09T02:07:49.215Z,33.80
2023-01-09T02:10:16.419Z,40.57
2023-01-09T02:12:43.389Z,67.50
2023-01-09T02:15:13.755Z,44.87
2023-01-09T02:17:43.407Z,71.67
2023-01-09T02:20:35.533Z,56.93
2023-01-09T02:23:05.595Z,53.17
2023-01-09T02:26:00.159Z,54.67
2023-01-09T02:28:33.229Z,37.70
2023-01-09T02:31:14.461Z,72.07
2023-01-09T02:34:04.673Z,40.80
2023-01-09T02:36:47.987Z,41.97
2023-01-09T02:39:26.520Z,38.77
2023-01-09T02:41:59.532Z,33.27
2023-01-09T02:44:28.683Z,32.73
2023-01-09T02:47:29.338Z,118.00
2023-01-09T02:49:58.791Z,49.47
2023-01-09T02:52:41.288Z,105.10
2023-01-09T02:55:44.187Z,31.13
2023-01-09T02:58:50.779Z,45.33
2023-01-09T03:01:34.033Z,66.10
2023-01-09T03:04:38.811Z,44.50
2023-01-09T03:07:08.495Z,35.43
2023-01-09T03:09:37.761Z,34.87
2023-01-09T03:12:18.327Z,33.47
2023-01-09T03:14:51.214Z,49.67
2023-01-09T03:17:26.479Z,42.93
2023-01-09T03:19:54.650Z,53.50
2023-01-09T03:22:21.630Z,60.77
2023-01-09T03:24:48.950Z,104.07
2023-01-09T03:27:15.966Z,28.37
2023-01-09T03:29:43.158Z,42.17
2023-01-09T03:32:10.114Z,49.53
2023-01-09T03:34:37.385Z,41.90
2023-01-09T03:37:05.060Z,34.97
2023-01-09T03:39:32.507Z,31.03
2023-01-09T03:41:59.566Z,39.63
2023-01-09T03:44:26.788Z,35.60
2023-01-09T03:46:53.846Z,47.73
2023-01-09T03:49:21.690Z,47.27
2023-01-09T03:51:48.669Z,43.23
2023-01-09T03:54:16.015Z,102.93
2023-01-09T03:56:43.009Z,57.03
2023-01-09T03:59:10.180Z,40.97
2023-01-09T04:01:37.315Z,37.03
2023-01-09T04:04:04.807Z,60.90
2023-01-09T04:06:31.769Z,39.30
2023-01-09T04:08:58.942Z,45.73
2023-01-09T04:11:25.883Z,43.63
2023-01-09T04:13:53.115Z,33.63
2023-01-09T04:16:20.082Z,188.43
2023-01-09T04:18:47.327Z,75.30
2023-01-09T04:21:14.342Z,78.67
2023-01-09T04:23:41.633Z,72.17
2023-01-09T04:26:08.561Z,43.10
2023-01-09T04:28:35.750Z,49.83
2023-01-09T04:31:02.941Z,72.07
2023-01-09T04:33:30.183Z,54.80
2023-01-09T04:35:57.159Z,43.87
2023-01-09T04:38:24.450Z,32.70
2023-01-09T04:40:51.451Z,38.90
2023-01-09T04:43:18.913Z,33.57
2023-01-09T04:45:45.919Z,32.23
2023-01-09T04:48:13.344Z,29.20
2023-01-09T04:50:40.261Z,25.40
2023-01-09T04:53:07.567Z,42.47
2023-01-09T04:55:34.599Z,35.60
2023-01-09T04:58:01.969Z,41.63
2023-01-09T05:00:28.940Z,47.87
2023-01-09T05:02:57.148Z,25.83
2023-01-09T05:05:24.181Z,31.90
2023-01-09T05:07:51.440Z,46.87
2023-01-09T05:10:18.554Z,57.37
2023-01-09T05:12:45.766Z,35.33
2023-01-09T05:15:12.920Z,37.77
2023-01-09T05:17:40.157Z,39.57
2023-01-09T05:20:07.440Z,28.30
2023-01-09T05:22:34.719Z,75.57
2023-01-09T05:25:01.672Z,47.30
2023-01-09T05:27:30.442Z,88.10
2023-01-09T05:29:57.396Z,32.07
2023-01-09T05:32:24.668Z,60.80
2023-01-09T05:34:51.633Z,45.93
2023-01-09T05:37:18.896Z,48.67
2023-01-09T05:39:45.883Z,35.57
2023-01-09T05:42:13.089Z,33.30
2023-01-09T05:44:40.041Z,33.83
2023-01-09T05:47:07.415Z,29.70
2023-01-09T05:49:34.525Z,34.83
2023-01-09T05:52:01.835Z,39.87
2023-01-09T05:54:28.788Z,29.67
2023-01-09T05:56:56.168Z,66.53
2023-01-09T05:59:23.079Z,52.10
2023-01-09T06:01:50.408Z,35.90
2023-01-09T06:04:17.576Z,47.97
2023-01-09T06:06:44.806Z,44.17
2023-01-09T06:09:11.979Z,39.43
2023-01-09T06:11:39.209Z,39.17
2023-01-09T06:14:06.664Z,34.70
2023-01-09T06:16:33.912Z,41.37
2023-01-09T06:19:00.905Z,39.20
2023-01-09T06:21:29.551Z,26.77
2023-01-09T06:23:56.797Z,38.17
2023-01-09T06:26:25.241Z,51.70
2023-01-09T06:28:52.994Z,37.40
2023-01-09T06:31:20.229Z,37.80
2023-01-09T06:33:47.297Z,25.90
2023-01-09T06:36:15.472Z,43.20
2023-01-09T06:38:42.617Z,39.20
2023-01-09T06:41:10.077Z,35.07
2023-01-09T06:43:37.023Z,28.67
2023-01-09T06:46:05.829Z,33.97
2023-01-09T06:48:33.605Z,32.07
2023-01-09T06:51:01.186Z,89.87
2023-01-09T06:53:28.423Z,38.90
2023-01-09T06:55:55.699Z,61.67
2023-01-09T06:58:22.723Z,50.93
2023-01-09T07:00:50.036Z,25.53
2023-01-09T07:03:22.102Z,23.23
2023-01-09T07:05:49.483Z,61.00
2023-01-09T07:08:16.516Z,37.57
2023-01-09T07:10:44.245Z,39.47
2023-01-09T07:13:11.538Z,29.93
2023-01-09T07:15:38.886Z,33.63
2023-01-09T07:18:06.104Z,26.30
2023-01-09T07:20:33.350Z,78.33
2023-01-09T07:23:00.312Z,28.90
2023-01-09T07:25:27.549Z,52.03
2023-01-09T07:27:54.506Z,81.37
2023-01-09T07:30:21.706Z,24.87
2023-01-09T07:32:48.698Z,54.97
2023-01-09T07:35:16.325Z,93.33
2023-01-09T07:37:43.282Z,45.70
2023-01-09T07:40:10.947Z,44.97
2023-01-09T07:42:38.071Z,34.60
2023-01-09T07:45:06.253Z,33.60
2023-01-09T07:47:33.300Z,32.27
2023-01-09T07:50:00.497Z,44.33
2023-01-09T07:52:28.039Z,53.47
2023-01-09T07:54:55.359Z,63.33
2023-01-09T07:57:22.348Z,64.33
2023-01-09T07:59:49.598Z,46.40
2023-01-09T08:02:18.223Z,25.27
2023-01-09T08:04:45.858Z,36.10
2023-01-09T08:07:12.912Z,49.63
2023-01-09T08:09:40.187Z,50.20
2023-01-09T08:12:07.144Z,39.17
2023-01-09T08:14:35.983Z,29.23
2023-01-09T08:17:03.119Z,31.23
2023-01-09T08:19:30.399Z,27.87
2023-01-09T08:21:57.536Z,55.33
2023-01-09T08:24:24.834Z,53.63
2023-01-09T08:26:51.830Z,56.20
2023-01-09T08:29:19.043Z,83.37
2023-01-09T08:31:46.113Z,31.13
2023-01-09T08:34:13.339Z,65.93
2023-01-09T08:36:40.236Z,37.53
2023-01-09T08:39:07.554Z,63.30
2023-01-09T08:41:53.130Z,43.10
2023-01-09T08:44:38.844Z,36.07
2023-01-09T08:47:05.893Z,26.93
2023-01-09T08:49:38.540Z,30.67
2023-01-09T08:52:06.639Z,99.57
2023-01-09T08:54:36.786Z,35.03
2023-01-09T08:57:03.762Z,57.93
2023-01-09T08:59:31.019Z,48.77
2023-01-09T09:01:58.477Z,30.00
2023-01-09T09:04:25.985Z,43.00
2023-01-09T09:06:52.934Z,24.73
2023-01-09T09:09:20.251Z,28.83
2023-01-09T09:11:47.289Z,40.23
2023-01-09T09:14:32.985Z,36.60
2023-01-09T09:17:00.033Z,18.77
2023-01-09T09:19:27.290Z,27.53
2023-01-09T09:21:54.212Z,26.10
2023-01-09T09:24:21.588Z,26.57
2023-01-09T09:26:48.483Z,40.33
2023-01-09T09:29:16.651Z,65.90
2023-01-09T09:31:43.605Z,81.67
2023-01-09T09:34:12.937Z,52.00
2023-01-09T09:36:39.877Z,34.87
2023-01-09T09:39:08.459Z,48.13
2023-01-09T09:41:53.962Z,44.53
2023-01-09T09:44:54.345Z,31.83
2023-01-09T09:47:31.985Z,30.67
2023-01-09T09:50:17.046Z,26.53
2023-01-09T09:53:02.033Z,65.00
2023-01-09T09:55:29.258Z,51.53
2023-01-09T09:57:56.716Z,36.57
2023-01-09T10:00:24.421Z,30.90
2023-01-09T10:03:32.999Z,93.63
2023-01-09T10:06:05.054Z,25.97
2023-01-09T10:08:46.988Z,40.83
2023-01-09T10:11:22.280Z,65.37
2023-01-09T10:14:23.609Z,65.20
2023-01-09T10:16:57.255Z,37.70
2023-01-09T10:19:47.745Z,34.97
2023-01-09T10:22:25.297Z,26.10
2023-01-09T10:25:01.111Z,35.40
2023-01-09T10:28:03.693Z,38.07
2023-01-09T10:30:46.001Z,56.37
2023-01-09T10:33:34.993Z,54.33
2023-01-09T10:36:25.232Z,58.53
2023-01-09T10:38:56.990Z,42.37
2023-01-09T10:42:13.186Z,41.77
2023-01-09T10:44:48.527Z,32.27
2023-01-09T10:47:22.922Z,36.90
2023-01-09T10:49:51.046Z,33.73
2023-01-09T10:52:20.801Z,24.23
2023-01-09T10:54:56.502Z,28.77
2023-01-09T10:57:42.379Z,89.30
2023-01-09T11:00:23.962Z,35.20
2023-01-09T11:02:52.505Z,59.73
2023-01-09T11:05:22.901Z,40.53
2023-01-09T11:07:54.332Z,27.00
2023-01-09T11:10:24.533Z,40.63
2023-01-09T11:12:51.601Z,28.33
2023-01-09T11:15:19.579Z,26.23
2023-01-09T11:17:47.931Z,27.93
2023-01-09T11:20:18.272Z,26.93
2023-01-09T11:22:51.087Z,31.03
2023-01-09T11:25:20.397Z,26.37
2023-01-09T11:28:16.656Z,21.60
2023-01-09T11:31:03.134Z,25.13
2023-01-09T11:33:34.128Z,62.30
2023-01-09T11:36:11.105Z,35.67
2023-01-09T11:38:57.542Z,44.00
2023-01-09T11:41:31.138Z,29.87
2023-01-09T11:43:59.718Z,29.00
2023-01-09T11:46:34.414Z,36.10
2023-01-09T11:49:09.138Z,31.10
2023-01-09T11:51:36.968Z,37.23
2023-01-09T11:54:26.194Z,32.50
2023-01-09T11:56:53.907Z,28.93
2023-01-09T11:59:23.321Z,32.00
2023-01-09T12:02:16.619Z,25.20
2023-01-09T12:04:56.706Z,27.33
2023-01-09T12:08:06.919Z,59.97
2023-01-09T12:10:57.984Z,118.60
2023-01-09T12:13:46.917Z,25.70
2023-01-09T12:16:19.805Z,38.97
2023-01-09T12:19:05.621Z,36.73
2023-01-09T12:21:39.596Z,45.97
2023-01-09T12:24:22.020Z,42.37
2023-01-09T12:27:23.154Z,30.03
2023-01-09T12:29:59.892Z,40.20
2023-01-09T12:32:42.851Z,34.57
2023-01-09T12:35:31.449Z,28.23
2023-01-09T12:38:05.363Z,39.03
2023-01-09T12:40:42.793Z,144.80
2023-01-09T12:43:39.844Z,37.17
2023-01-09T12:46:22.492Z,40.40
2023-01-09T12:48:58.385Z,31.73
2023-01-09T12:51:43.848Z,51.93
2023-01-09T12:54:15.687Z,46.23
2023-01-09T12:56:49.957Z,46.73
2023-01-09T12:59:33.818Z,31.73
2023-01-09T13:02:10.355Z,30.07
2023-01-09T13:04:41.529Z,73.23
2023-01-09T13:07:18.701Z,34.40
2023-01-09T13:10:07.225Z,37.00
2023-01-09T13:12:37.188Z,33.57
2023-01-09T13:15:25.847Z,37.53
2023-01-09T13:17:55.861Z,24.45
2023-01-09T13:20:29.267Z,24.70
2023-01-09T13:22:56.896Z,26.70
2023-01-09T13:25:41.314Z,41.77
2023-01-09T13:28:35.845Z,27.00
2023-01-09T13:31:25.753Z,33.03
2023-01-09T13:33:55.971Z,28.93
2023-01-09T13:36:29.570Z,27.93
2023-01-09T13:38:58.057Z,34.23
2023-01-09T13:41:45.674Z,31.20
2023-01-09T13:44:19.238Z,45.77
2023-01-09T13:46:48.979Z,26.03
2023-01-09T13:49:41.650Z,42.03
2023-01-09T13:52:34.255Z,32.57
2023-01-09T13:55:05.192Z,43.60
2023-01-09T13:57:36.778Z,33.30
2023-01-09T14:00:07.405Z,31.13
2023-01-09T14:02:38.801Z,27.47
2023-01-09T14:05:25.645Z,26.03
2023-01-09T14:08:02.734Z,82.47
2023-01-09T14:10:35.151Z,48.10
2023-01-09T14:13:06.797Z,43.13
2023-01-09T14:15:39.444Z,74.87
2023-01-09T14:18:24.020Z,27.97
2023-01-09T14:20:57.420Z,31.43
2023-01-09T14:23:56.041Z,29.70
2023-01-09T14:26:25.151Z,53.37
2023-01-09T14:28:52.386Z,35.67
2023-01-09T14:31:37.589Z,30.30
2023-01-09T14:34:31.708Z,36.53
2023-01-09T14:37:01.706Z,32.10
2023-01-09T14:39:31.665Z,27.90
2023-01-09T14:42:09.322Z,28.13
2023-01-09T14:45:01.309Z,31.83
2023-01-09T14:47:31.673Z,87.07
2023-01-09T14:50:04.328Z,40.90
2023-01-09T14:52:57.994Z,42.90
2023-01-09T14:55:30.433Z,35.60
2023-01-09T14:58:30.321Z,48.30
2023-01-09T15:01:07.538Z,41.90
2023-01-09T15:03:59.048Z,41.95
2023-01-09T15:06:32.527Z,41.70
2023-01-09T15:09:09.425Z,44.93
2023-01-09T15:11:38.350Z,49.40
2023-01-09T15:14:06.432Z,46.30
2023-01-09T15:16:33.628Z,54.10
2023-01-09T15:19:05.281Z,54.97
2023-01-09T15:21:32.650Z,75.83
2023-01-09T15:24:23.008Z,42.37
2023-01-09T15:26:55.339Z,48.73
2023-01-09T15:29:22.999Z,60.63
2023-01-09T15:31:56.069Z,53.10
2023-01-09T15:34:24.880Z,45.57
2023-01-09T15:36:52.833Z,41.20
2023-01-09T15:39:24.718Z,38.50
2023-01-09T15:42:10.737Z,39.73
2023-01-09T15:44:40.191Z,79.20
2023-01-09T15:47:12.015Z,51.60
2023-01-09T15:49:39.606Z,57.60
2023-01-09T15:52:11.889Z,57.20
2023-01-09T15:54:40.227Z,58.57
2023-01-09T15:57:25.455Z,40.17
2023-01-09T16:00:19.186Z,39.88
2023-01-09T16:03:05.033Z,34.27
2023-01-09T16:05:33.397Z,40.60
2023-01-09T16:08:01.963Z,41.50
2023-01-09T16:10:34.194Z,38.60
2023-01-09T16:13:01.834Z,66.83
2023-01-09T16:15:32.785Z,91.97
2023-01-09T16:18:17.756Z,83.90
2023-01-09T16:20:45.875Z,104.00
2023-01-09T16:23:23.007Z,61.93
2023-01-09T16:25:50.291Z,121.20
2023-01-09T16:28:27.120Z,53.47
2023-01-09T16:30:57.139Z,66.40
2023-01-09T16:33:28.896Z,214.87
2023-01-09T16:35:56.571Z,76.87
2023-01-09T16:38:24.848Z,45.93
2023-01-09T16:41:36.008Z,63.60
2023-01-09T16:44:08.757Z,68.63
2023-01-09T16:46:38.670Z,46.93
2023-01-09T16:49:21.965Z,73.43
2023-01-09T16:51:50.417Z,69.57
2023-01-09T16:54:17.528Z,64.10
2023-01-09T16:56:49.216Z,70.40
2023-01-09T16:59:20.762Z,35.90
2023-01-09T17:01:48.283Z,40.73
2023-01-09T17:04:17.392Z,58.97
2023-01-09T17:06:44.970Z,58.40
2023-01-09T17:09:13.722Z,44.37
2023-01-09T17:11:41.172Z,63.53
2023-01-09T17:14:09.956Z,55.37
2023-01-09T17:16:37.732Z,43.67
2023-01-09T17:19:05.376Z,66.80
2023-01-09T17:21:32.708Z,29.17
2023-01-09T17:24:18.721Z,58.93
2023-01-09T17:27:08.191Z,59.33
2023-01-09T17:29:35.526Z,125.57
2023-01-09T17:32:02.889Z,46.77
2023-01-09T17:34:30.035Z,36.97
2023-01-09T17:36:57.416Z,83.20
2023-01-09T17:39:24.411Z,58.60
2023-01-09T17:41:51.621Z,41.63
2023-01-09T17:44:18.640Z,41.80
2023-01-09T17:46:45.989Z,26.67
2023-01-09T17:49:18.092Z,35.40
2023-01-09T17:51:45.641Z,45.33
2023-01-09T17:54:13.684Z,35.47
2023-01-09T17:56:44.431Z,41.67
2023-01-09T17:59:13.337Z,68.30
2023-01-09T18:01:41.236Z,23.93
2023-01-09T18:04:08.749Z,26.60
2023-01-09T18:06:39.283Z,29.37
2023-01-09T18:09:07.167Z,33.60
2023-01-09T18:11:34.723Z,25.20
2023-01-09T18:14:02.583Z,27.53
2023-01-09T18:16:30.380Z,30.43
2023-01-09T18:18:58.741Z,26.60
2023-01-09T18:21:27.936Z,35.17
2023-01-09T18:23:55.680Z,32.77
2023-01-09T18:26:23.351Z,61.63
2023-01-09T18:28:52.699Z,27.93
2023-01-09T18:31:23.994Z,32.50
2023-01-09T18:33:52.325Z,25.43
2023-01-09T18:36:21.681Z,37.50
2023-01-09T18:38:53.323Z,27.47
2023-01-09T18:41:21.465Z,26.00
2023-01-09T18:43:52.997Z,27.70
2023-01-09T18:46:24.502Z,35.90
2023-01-09T18:48:55.856Z,23.73
2023-01-09T18:51:24.298Z,27.27
2023-01-09T18:53:52.065Z,37.83
2023-01-09T18:56:20.154Z,35.43
2023-01-09T18:58:47.933Z,39.77
2023-01-09T19:01:16.004Z,48.37
2023-01-09T19:03:43.013Z,32.03
2023-01-09T19:06:10.774Z,34.97
2023-01-09T19:08:37.959Z,81.17
2023-01-09T19:11:05.676Z,66.90
2023-01-09T19:13:34.667Z,99.00
2023-01-09T19:16:02.701Z,127.97
2023-01-09T19:18:33.139Z,43.37
2023-01-09T19:21:00.376Z,69.20
2023-01-09T19:23:27.931Z,87.30
2023-01-09T19:25:55.659Z,776.40
2023-01-09T19:28:22.577Z,733.37
2023-01-09T19:30:59.193Z,103.97
2023-01-09T19:33:26.181Z,76.63
2023-01-09T19:35:53.497Z,195.60
2023-01-09T19:38:24.971Z,171.17
2023-01-09T19:40:52.281Z,872.23
2023-01-09T19:43:28.503Z,978.70
2023-01-09T19:45:56.683Z,215.37
2023-01-09T19:48:24.387Z,263.03
2023-01-09T19:50:52.572Z,181.80
2023-01-09T19:53:19.535Z,54.97
2023-01-09T19:55:46.763Z,83.00
2023-01-09T19:58:13.787Z,247.37
2023-01-09T20:00:41.012Z,125.27
2023-01-09T20:03:07.985Z,103.67
2023-01-09T20:05:35.723Z,126.37
2023-01-09T20:08:06.275Z,643.20
2023-01-09T20:10:33.625Z,538.37
2023-01-09T20:13:00.653Z,211.30
2023-01-09T20:15:27.974Z,103.57
2023-01-09T20:17:55.136Z,227.83
2023-01-09T20:20:22.478Z,120.70
2023-01-09T20:22:49.465Z,77.77
2023-01-09T20:25:16.940Z,63.47
2023-01-09T20:27:43.974Z,161.23
2023-01-09T20:30:11.765Z,52.23
2023-01-09T20:32:38.780Z,42.03
2023-01-09T20:35:06.449Z,68.17
2023-01-09T20:37:33.420Z,53.47
2023-01-09T20:40:00.619Z,56.57
2023-01-09T20:42:27.594Z,88.33
2023-01-09T20:44:55.667Z,84.03
2023-01-09T20:47:22.581Z,35.67
2023-01-09T20:49:49.853Z,92.60
2023-01-09T20:52:16.804Z,72.40
2023-01-09T20:54:46.017Z,77.57
2023-01-09T20:57:12.944Z,67.07
2023-01-09T20:59:40.401Z,91.37
2023-01-09T21:02:14.386Z,98.20
2023-01-09T21:04:41.633Z,107.60
2023-01-09T21:07:10.831Z,125.57
2023-01-09T21:09:38.363Z,120.03
2023-01-09T21:12:24.695Z,99.80
2023-01-09T21:14:51.930Z,137.53
2023-01-09T21:17:18.991Z,82.47
2023-01-09T21:19:46.334Z,88.63
2023-01-09T21:22:13.355Z,129.23
2023-01-09T21:24:40.538Z,109.23
2023-01-09T21:27:07.508Z,96.47
2023-01-09T21:29:34.864Z,82.97
2023-01-09T21:32:01.794Z,116.07
2023-01-09T21:34:29.081Z,136.47
2023-01-09T21:36:56.073Z,114.00
2023-01-09T21:39:23.521Z,123.13
2023-01-09T21:42:08.923Z,134.10
2023-01-09T21:44:54.786Z,59.07
2023-01-09T21:47:21.802Z,73.17
2023-01-09T21:49:49.144Z,140.87
2023-01-09T21:52:18.288Z,93.13
2023-01-09T21:54:45.601Z,122.63
2023-01-09T21:57:13.065Z,120.27
2023-01-09T21:59:40.120Z,117.33
2023-01-09T22:02:11.035Z,101.60
2023-01-09T22:04:39.121Z,178.17
2023-01-09T22:07:06.309Z,92.60
2023-01-09T22:09:33.270Z,121.17
2023-01-09T22:12:00.493Z,110.87
2023-01-09T22:14:27.531Z,111.57
2023-01-09T22:16:54.747Z,140.33
2023-01-09T22:19:22.029Z,105.80
2023-01-09T22:21:49.294Z,148.17
2023-01-09T22:24:17.905Z,95.53
2023-01-09T22:26:45.689Z,123.03
2023-01-09T22:29:12.767Z,107.03
2023-01-09T22:31:40.616Z,116.93
2023-01-09T22:34:07.749Z,147.63
2023-01-09T22:36:35.139Z,92.87
2023-01-09T22:39:02.219Z,132.90
2023-01-09T22:41:30.594Z,148.67
2023-01-09T22:43:58.230Z,96.20
2023-01-09T22:46:25.952Z,70.90
2023-01-09T22:48:53.017Z,110.80
2023-01-09T22:51:21.860Z,84.50
2023-01-09T22:53:49.495Z,82.87
2023-01-09T22:56:19.435Z,93.83
2023-01-09T22:58:54.057Z,43.97
2023-01-09T23:01:22.494Z,71.17
2023-01-09T23:03:49.546Z,66.90
2023-01-09T23:06:19.914Z,105.77
2023-01-09T23:08:53.555Z,106.03
2023-01-09T23:11:43.794Z,63.50
2023-01-09T23:14:11.393Z,104.17
2023-01-09T23:16:39.074Z,223.63
2023-01-09T23:19:08.901Z,54.90
2023-01-09T23:21:36.837Z,121.87
2023-01-09T23:24:04.046Z,72.97
2023-01-09T23:26:31.340Z,124.80
2023-01-09T23:28:58.366Z,137.00
2023-01-09T23:31:26.041Z,168.75
2023-01-09T23:33:53.327Z,201.47
2023-01-09T23:36:22.417Z,104.37
2023-01-09T23:38:49.740Z,202.33
2023-01-09T23:41:17.276Z,105.80
2023-01-09T23:43:44.711Z,109.67
2023-01-09T23:46:15.376Z,98.20
2023-01-09T23:48:42.353Z,49.67
2023-01-09T23:51:09.544Z,75.23
2023-01-09T23:53:36.509Z,63.67
2023-01-09T23:56:03.795Z,150.53
2023-01-09T23:58:30.712Z,73.47
